sensor_id;sensor_type;location;lat;lon;timestamp;P1;durP1;ratioP1;P2;durP2;ratioP2
60831;SDS011;46665;51.558;-0.448;2023-01-23T00:01:58;5.15;;;3.33;;
60831;SDS011;46665;51.558;-0.448;2023-01-23T00:04:42;17.35;;;7.57;;
60831;SDS011;46665;51.558;-0.448;2023-01-23T00:07:26;9.85;;;5.18;;
60831;SDS011;46665;51.558;-0.448;2023-01-23T00:10:10;18.20;;;5.68;;
60831;SDS011;46665;51.558;-0.448;2023-01-23T00:12:55;7.05;;;5.38;;
60831;SDS011;46665;51.558;-0.448;2023-01-23T00:15:40;8.60;;;6.00;;
60831;SDS011;46665;51.558;-0.448;2023-01-23T00:18:23;15.82;;;4.93;;
60831;SDS011;46665;51.558;-0.448;2023-01-23T00:21:10;10.35;;;5.25;;
60831;SDS011;46665;51.558;-0.448;2023-01-23T00:23:56;9.45;;;6.35;;
60831;SDS011;46665;51.558;-0.448;2023-01-23T00:26:41;4.97;;;3.93;;
60831;SDS011;46665;51.558;-0.448;2023-01-23T00:29:25;10.73;;;6.50;;
60831;SDS011;46665;51.558;-0.448;2023-01-23T00:32:09;14.10;;;5.63;;
60831;SDS011;46665;51.558;-0.448;2023-01-23T00:34:53;10.57;;;4.45;;
60831;SDS011;46665;51.558;-0.448;2023-01-23T00:37:37;10.45;;;6.70;;
60831;SDS011;46665;51.558;-0.448;2023-01-23T00:40:21;15.02;;;5.00;;
60831;SDS011;46665;51.558;-0.448;2023-01-23T00:43:05;10.70;;;5.15;;
60831;SDS011;46665;51.558;-0.448;2023-01-23T00:45:49;12.07;;;5.53;;
60831;SDS011;46665;51.558;-0.448;2023-01-23T00:48:33;4.75;;;3.65;;
60831;SDS011;46665;51.558;-0.448;2023-01-23T00:51:17;5.47;;;4.88;;
60831;SDS011;46665;51.558;-0.448;2023-01-23T00:54:02;11.35;;;5.80;;
60831;SDS011;46665;51.558;-0.448;2023-01-23T00:56:46;10.18;;;5.38;;
60831;SDS011;46665;51.558;-0.448;2023-01-23T00:59:31;12.68;;;4.85;;
60831;SDS011;46665;51.558;-0.448;2023-01-23T01:02:15;9.95;;;6.28;;
60831;SDS011;46665;51.558;-0.448;2023-01-23T01:04:59;11.75;;;4.68;;
60831;SDS011;46665;51.558;-0.448;2023-01-23T01:07:43;15.77;;;5.43;;
60831;SDS011;46665;51.558;-0.448;2023-01-23T01:10:27;28.58;;;5.72;;
60831;SDS011;46665;51.558;-0.448;2023-01-23T01:13:12;6.63;;;5.15;;
60831;SDS011;46665;51.558;-0.448;2023-01-23T01:15:57;14.20;;;7.20;;
60831;SDS011;46665;51.558;-0.448;2023-01-23T01:18:44;24.92;;;4.55;;
60831;SDS011;46665;51.558;-0.448;2023-01-23T01:21:28;9.85;;;5.43;;
60831;SDS011;46665;51.558;-0.448;2023-01-23T01:24:12;11.65;;;5.35;;
60831;SDS011;46665;51.558;-0.448;2023-01-23T01:26:56;16.17;;;6.43;;
60831;SDS011;46665;51.558;-0.448;2023-01-23T01:29:40;7.95;;;3.17;;
60831;SDS011;46665;51.558;-0.448;2023-01-23T01:32:24;17.90;;;9.02;;
60831;SDS011;46665;51.558;-0.448;2023-01-23T01:35:08;10.20;;;4.20;;
60831;SDS011;46665;51.558;-0.448;2023-01-23T01:37:52;5.57;;;4.38;;
60831;SDS011;46665;51.558;-0.448;2023-01-23T01:40:36;16.08;;;6.95;;
60831;SDS011;46665;51.558;-0.448;2023-01-23T01:43:21;7.93;;;6.05;;
60831;SDS011;46665;51.558;-0.448;2023-01-23T01:46:20;11.07;;;4.45;;
60831;SDS011;46665;51.558;-0.448;2023-01-23T01:52:09;13.93;;;4.77;;
60831;SDS011;46665;51.558;-0.448;2023-01-23T01:55:02;5.30;;;3.45;;
60831;SDS011;46665;51.558;-0.448;2023-01-23T01:57:47;5.68;;;3.75;;
60831;SDS011;46665;51.558;-0.448;2023-01-23T02:00:36;14.88;;;5.32;;
60831;SDS011;46665;51.558;-0.448;2023-01-23T02:03:19;6.15;;;4.35;;
60831;SDS011;46665;51.558;-0.448;2023-01-23T02:06:04;10.00;;;6.32;;
60831;SDS011;46665;51.558;-0.448;2023-01-23T02:08:57;7.63;;;5.07;;
60831;SDS011;46665;51.558;-0.448;2023-01-23T02:11:46;6.68;;;3.95;;
60831;SDS011;46665;51.558;-0.448;2023-01-23T02:14:31;7.85;;;4.95;;
60831;SDS011;46665;51.558;-0.448;2023-01-23T02:17:15;9.43;;;4.80;;
60831;SDS011;46665;51.558;-0.448;2023-01-23T02:26:39;6.60;;;4.28;;
60831;SDS011;46665;51.558;-0.448;2023-01-23T02:29:25;32.85;;;5.60;;
60831;SDS011;46665;51.558;-0.448;2023-01-23T02:32:09;18.98;;;4.75;;
60831;SDS011;46665;51.558;-0.448;2023-01-23T02:34:53;10.90;;;6.15;;
60831;SDS011;46665;51.558;-0.448;2023-01-23T02:37:41;7.75;;;5.25;;
60831;SDS011;46665;51.558;-0.448;2023-01-23T02:40:35;9.40;;;5.97;;
60831;SDS011;46665;51.558;-0.448;2023-01-23T02:43:21;2.83;;;2.50;;
60831;SDS011;46665;51.558;-0.448;2023-01-23T02:46:11;11.85;;;5.50;;
60831;SDS011;46665;51.558;-0.448;2023-01-23T02:48:55;9.27;;;5.57;;
60831;SDS011;46665;51.558;-0.448;2023-01-23T02:51:39;15.10;;;4.82;;
60831;SDS011;46665;51.558;-0.448;2023-01-23T02:54:23;6.32;;;5.13;;
60831;SDS011;46665;51.558;-0.448;2023-01-23T02:57:08;8.65;;;5.78;;
60831;SDS011;46665;51.558;-0.448;2023-01-23T02:59:52;7.07;;;5.15;;
60831;SDS011;46665;51.558;-0.448;2023-01-23T03:02:55;16.00;;;7.70;;
60831;SDS011;46665;51.558;-0.448;2023-01-23T03:05:39;31.15;;;5.70;;
60831;SDS011;46665;51.558;-0.448;2023-01-23T03:08:23;5.63;;;3.88;;
60831;SDS011;46665;51.558;-0.448;2023-01-23T03:11:16;7.00;;;4.90;;
60831;SDS011;46665;51.558;-0.448;2023-01-23T03:14:01;10.23;;;5.38;;
60831;SDS011;46665;51.558;-0.448;2023-01-23T03:16:45;7.82;;;4.50;;
60831;SDS011;46665;51.558;-0.448;2023-01-23T03:19:33;8.35;;;5.45;;
60831;SDS011;46665;51.558;-0.448;2023-01-23T03:22:17;9.32;;;4.32;;
60831;SDS011;46665;51.558;-0.448;2023-01-23T03:25:01;16.60;;;3.03;;
60831;SDS011;46665;51.558;-0.448;2023-01-23T03:27:45;11.77;;;3.75;;
60831;SDS011;46665;51.558;-0.448;2023-01-23T03:30:29;12.32;;;6.00;;
60831;SDS011;46665;51.558;-0.448;2023-01-23T03:33:13;9.30;;;3.97;;
60831;SDS011;46665;51.558;-0.448;2023-01-23T03:35:57;7.80;;;4.72;;
60831;SDS011;46665;51.558;-0.448;2023-01-23T03:38:41;7.68;;;4.15;;
60831;SDS011;46665;51.558;-0.448;2023-01-23T03:41:45;9.65;;;4.22;;
60831;SDS011;46665;51.558;-0.448;2023-01-23T03:44:31;22.00;;;5.85;;
60831;SDS011;46665;51.558;-0.448;2023-01-23T03:47:15;15.27;;;6.15;;
60831;SDS011;46665;51.558;-0.448;2023-01-23T03:49:59;5.93;;;4.15;;
60831;SDS011;46665;51.558;-0.448;2023-01-23T03:52:43;8.85;;;5.63;;
60831;SDS011;46665;51.558;-0.448;2023-01-23T03:55:27;12.10;;;5.20;;
60831;SDS011;46665;51.558;-0.448;2023-01-23T03:58:10;7.05;;;4.90;;
60831;SDS011;46665;51.558;-0.448;2023-01-23T04:00:55;8.93;;;4.03;;
60831;SDS011;46665;51.558;-0.448;2023-01-23T04:03:39;18.40;;;3.65;;
60831;SDS011;46665;51.558;-0.448;2023-01-23T04:06:23;5.90;;;4.07;;
60831;SDS011;46665;51.558;-0.448;2023-01-23T04:09:07;5.97;;;3.90;;
60831;SDS011;46665;51.558;-0.448;2023-01-23T04:11:51;6.35;;;5.18;;
60831;SDS011;46665;51.558;-0.448;2023-01-23T04:14:35;5.75;;;3.90;;
60831;SDS011;46665;51.558;-0.448;2023-01-23T04:17:20;5.93;;;4.53;;
60831;SDS011;46665;51.558;-0.448;2023-01-23T04:20:04;9.85;;;4.63;;
60831;SDS011;46665;51.558;-0.448;2023-01-23T04:22:48;27.05;;;4.65;;
60831;SDS011;46665;51.558;-0.448;2023-01-23T04:25:32;4.72;;;2.72;;
60831;SDS011;46665;51.558;-0.448;2023-01-23T04:28:16;6.63;;;3.90;;
60831;SDS011;46665;51.558;-0.448;2023-01-23T04:31:01;3.22;;;2.95;;
60831;SDS011;46665;51.558;-0.448;2023-01-23T04:33:46;6.25;;;5.35;;
60831;SDS011;46665;51.558;-0.448;2023-01-23T04:36:29;22.20;;;5.30;;
60831;SDS011;46665;51.558;-0.448;2023-01-23T04:39:13;7.72;;;4.25;;
60831;SDS011;46665;51.558;-0.448;2023-01-23T04:41:57;5.18;;;3.88;;
60831;SDS011;46665;51.558;-0.448;2023-01-23T04:44:43;26.65;;;4.85;;
60831;SDS011;46665;51.558;-0.448;2023-01-23T04:47:27;12.18;;;5.05;;
60831;SDS011;46665;51.558;-0.448;2023-01-23T04:50:10;5.93;;;4.80;;
60831;SDS011;46665;51.558;-0.448;2023-01-23T04:52:54;3.45;;;3.15;;
60831;SDS011;46665;51.558;-0.448;2023-01-23T04:55:40;2.75;;;2.58;;
60831;SDS011;46665;51.558;-0.448;2023-01-23T04:58:24;3.42;;;2.40;;
60831;SDS011;46665;51.558;-0.448;2023-01-23T05:01:09;6.18;;;3.53;;
60831;SDS011;46665;51.558;-0.448;2023-01-23T05:03:53;4.97;;;4.05;;
60831;SDS011;46665;51.558;-0.448;2023-01-23T05:06:37;5.82;;;2.28;;
60831;SDS011;46665;51.558;-0.448;2023-01-23T05:09:23;3.40;;;2.85;;
60831;SDS011;46665;51.558;-0.448;2023-01-23T05:12:07;13.07;;;3.92;;
60831;SDS011;46665;51.558;-0.448;2023-01-23T05:14:51;11.02;;;4.30;;
60831;SDS011;46665;51.558;-0.448;2023-01-23T05:17:34;4.78;;;4.38;;
60831;SDS011;46665;51.558;-0.448;2023-01-23T05:20:20;3.90;;;3.47;;
60831;SDS011;46665;51.558;-0.448;2023-01-23T05:23:06;12.00;;;5.45;;
60831;SDS011;46665;51.558;-0.448;2023-01-23T05:25:50;7.35;;;3.78;;
60831;SDS011;46665;51.558;-0.448;2023-01-23T05:28:34;8.48;;;4.97;;
60831;SDS011;46665;51.558;-0.448;2023-01-23T05:31:18;7.72;;;3.60;;
60831;SDS011;46665;51.558;-0.448;2023-01-23T05:34:02;8.70;;;4.80;;
60831;SDS011;46665;51.558;-0.448;2023-01-23T05:36:46;19.63;;;5.45;;
60831;SDS011;46665;51.558;-0.448;2023-01-23T05:39:30;4.82;;;2.92;;
60831;SDS011;46665;51.558;-0.448;2023-01-23T05:42:15;16.13;;;4.68;;
60831;SDS011;46665;51.558;-0.448;2023-01-23T05:44:59;4.35;;;2.78;;
60831;SDS011;46665;51.558;-0.448;2023-01-23T05:47:44;8.63;;;5.40;;
60831;SDS011;46665;51.558;-0.448;2023-01-23T05:50:28;9.23;;;5.45;;
60831;SDS011;46665;51.558;-0.448;2023-01-23T05:53:12;5.30;;;2.65;;
60831;SDS011;46665;51.558;-0.448;2023-01-23T05:55:56;2.65;;;2.47;;
60831;SDS011;46665;51.558;-0.448;2023-01-23T05:58:40;4.82;;;4.43;;
60831;SDS011;46665;51.558;-0.448;2023-01-23T06:01:24;4.75;;;3.10;;
60831;SDS011;46665;51.558;-0.448;2023-01-23T06:04:08;4.88;;;4.25;;
60831;SDS011;46665;51.558;-0.448;2023-01-23T06:06:52;11.25;;;4.10;;
60831;SDS011;46665;51.558;-0.448;2023-01-23T06:09:36;3.72;;;3.38;;
60831;SDS011;46665;51.558;-0.448;2023-01-23T06:12:20;6.38;;;3.88;;
60831;SDS011;46665;51.558;-0.448;2023-01-23T06:15:04;2.92;;;2.72;;
60831;SDS011;46665;51.558;-0.448;2023-01-23T06:17:48;13.10;;;5.25;;
60831;SDS011;46665;51.558;-0.448;2023-01-23T06:20:32;3.00;;;2.80;;
60831;SDS011;46665;51.558;-0.448;2023-01-23T06:23:16;8.50;;;4.03;;
60831;SDS011;46665;51.558;-0.448;2023-01-23T06:26:02;15.82;;;5.68;;
60831;SDS011;46665;51.558;-0.448;2023-01-23T06:28:47;3.45;;;3.13;;
60831;SDS011;46665;51.558;-0.448;2023-01-23T06:31:31;6.43;;;3.03;;
60831;SDS011;46665;51.558;-0.448;2023-01-23T06:34:15;8.27;;;4.30;;
60831;SDS011;46665;51.558;-0.448;2023-01-23T06:36:59;4.35;;;4.00;;
60831;SDS011;46665;51.558;-0.448;2023-01-23T06:39:43;2.47;;;1.90;;
60831;SDS011;46665;51.558;-0.448;2023-01-23T06:42:27;6.05;;;4.07;;
60831;SDS011;46665;51.558;-0.448;2023-01-23T06:45:11;9.05;;;3.85;;
60831;SDS011;46665;51.558;-0.448;2023-01-23T06:47:55;4.15;;;3.70;;
60831;SDS011;46665;51.558;-0.448;2023-01-23T06:50:40;9.10;;;3.85;;
60831;SDS011;46665;51.558;-0.448;2023-01-23T06:53:24;5.95;;;4.80;;
60831;SDS011;46665;51.558;-0.448;2023-01-23T06:56:09;4.93;;;3.58;;
60831;SDS011;46665;51.558;-0.448;2023-01-23T06:58:55;6.13;;;3.17;;
60831;SDS011;46665;51.558;-0.448;2023-01-23T07:01:39;16.15;;;5.80;;
60831;SDS011;46665;51.558;-0.448;2023-01-23T07:04:23;6.10;;;3.22;;
60831;SDS011;46665;51.558;-0.448;2023-01-23T07:07:07;5.22;;;4.57;;
60831;SDS011;46665;51.558;-0.448;2023-01-23T07:09:51;12.10;;;3.42;;
60831;SDS011;46665;51.558;-0.448;2023-01-23T07:12:35;3.38;;;2.97;;
60831;SDS011;46665;51.558;-0.448;2023-01-23T07:15:19;5.72;;;2.58;;
60831;SDS011;46665;51.558;-0.448;2023-01-23T07:18:03;13.52;;;2.90;;
60831;SDS011;46665;51.558;-0.448;2023-01-23T07:20:48;7.30;;;2.97;;
60831;SDS011;46665;51.558;-0.448;2023-01-23T07:23:33;6.82;;;4.55;;
60831;SDS011;46665;51.558;-0.448;2023-01-23T07:26:17;5.97;;;2.78;;
60831;SDS011;46665;51.558;-0.448;2023-01-23T07:29:01;5.30;;;2.88;;
60831;SDS011;46665;51.558;-0.448;2023-01-23T07:31:45;3.50;;;2.15;;
60831;SDS011;46665;51.558;-0.448;2023-01-23T07:34:29;7.82;;;3.30;;
60831;SDS011;46665;51.558;-0.448;2023-01-23T07:37:13;5.10;;;4.32;;
60831;SDS011;46665;51.558;-0.448;2023-01-23T07:39:57;12.35;;;3.72;;
60831;SDS011;46665;51.558;-0.448;2023-01-23T07:42:41;8.52;;;3.83;;
60831;SDS011;46665;51.558;-0.448;2023-01-23T07:45:25;4.22;;;3.55;;
60831;SDS011;46665;51.558;-0.448;2023-01-23T07:48:09;26.80;;;4.57;;
60831;SDS011;46665;51.558;-0.448;2023-01-23T07:50:53;4.28;;;3.90;;
60831;SDS011;46665;51.558;-0.448;2023-01-23T07:53:38;4.22;;;3.80;;
60831;SDS011;46665;51.558;-0.448;2023-01-23T07:56:21;3.17;;;2.97;;
60831;SDS011;46665;51.558;-0.448;2023-01-23T07:59:05;4.50;;;2.85;;
60831;SDS011;46665;51.558;-0.448;2023-01-23T08:01:49;13.18;;;4.35;;
60831;SDS011;46665;51.558;-0.448;2023-01-23T08:04:35;18.17;;;6.70;;
60831;SDS011;46665;51.558;-0.448;2023-01-23T08:07:19;7.82;;;4.80;;
60831;SDS011;46665;51.558;-0.448;2023-01-23T08:10:03;3.70;;;2.15;;
60831;SDS011;46665;51.558;-0.448;2023-01-23T08:12:47;20.00;;;2.63;;
60831;SDS011;46665;51.558;-0.448;2023-01-23T08:15:31;3.08;;;2.58;;
60831;SDS011;46665;51.558;-0.448;2023-01-23T08:18:15;2.95;;;2.45;;
60831;SDS011;46665;51.558;-0.448;2023-01-23T08:21:01;7.05;;;4.75;;
60831;SDS011;46665;51.558;-0.448;2023-01-23T08:23:45;9.18;;;5.15;;
60831;SDS011;46665;51.558;-0.448;2023-01-23T08:26:30;3.60;;;3.30;;
60831;SDS011;46665;51.558;-0.448;2023-01-23T08:29:14;9.13;;;2.78;;
60831;SDS011;46665;51.558;-0.448;2023-01-23T08:31:58;2.95;;;2.65;;
60831;SDS011;46665;51.558;-0.448;2023-01-23T08:34:42;5.20;;;3.60;;
60831;SDS011;46665;51.558;-0.448;2023-01-23T08:37:26;7.25;;;3.42;;
60831;SDS011;46665;51.558;-0.448;2023-01-23T08:40:10;10.43;;;5.60;;
60831;SDS011;46665;51.558;-0.448;2023-01-23T08:42:54;4.10;;;3.67;;
60831;SDS011;46665;51.558;-0.448;2023-01-23T08:45:39;4.93;;;3.58;;
60831;SDS011;46665;51.558;-0.448;2023-01-23T08:48:24;3.28;;;3.00;;
60831;SDS011;46665;51.558;-0.448;2023-01-23T08:51:10;4.88;;;3.60;;
60831;SDS011;46665;51.558;-0.448;2023-01-23T08:53:56;3.90;;;2.67;;
60831;SDS011;46665;51.558;-0.448;2023-01-23T08:56:40;4.50;;;2.38;;
60831;SDS011;46665;51.558;-0.448;2023-01-23T08:59:24;9.35;;;5.82;;
60831;SDS011;46665;51.558;-0.448;2023-01-23T09:02:09;5.25;;;3.78;;
60831;SDS011;46665;51.558;-0.448;2023-01-23T09:04:55;2.40;;;2.22;;
60831;SDS011;46665;51.558;-0.448;2023-01-23T09:07:39;3.25;;;2.90;;
60831;SDS011;46665;51.558;-0.448;2023-01-23T09:10:23;2.55;;;2.35;;
60831;SDS011;46665;51.558;-0.448;2023-01-23T09:13:08;5.78;;;2.08;;
60831;SDS011;46665;51.558;-0.448;2023-01-23T09:15:52;7.20;;;3.33;;
60831;SDS011;46665;51.558;-0.448;2023-01-23T09:18:36;5.10;;;2.67;;
60831;SDS011;46665;51.558;-0.448;2023-01-23T09:21:20;7.45;;;4.78;;
60831;SDS011;46665;51.558;-0.448;2023-01-23T09:24:04;5.70;;;3.75;;
60831;SDS011;46665;51.558;-0.448;2023-01-23T09:26:49;4.88;;;3.60;;
60831;SDS011;46665;51.558;-0.448;2023-01-23T09:29:33;7.88;;;3.75;;
60831;SDS011;46665;51.558;-0.448;2023-01-23T09:32:17;6.80;;;3.03;;
60831;SDS011;46665;51.558;-0.448;2023-01-23T09:35:00;10.07;;;3.47;;
60831;SDS011;46665;51.558;-0.448;2023-01-23T09:37:44;6.20;;;4.18;;
60831;SDS011;46665;51.558;-0.448;2023-01-23T09:40:48;5.18;;;4.18;;
60831;SDS011;46665;51.558;-0.448;2023-01-23T09:49:50;7.95;;;5.68;;
60831;SDS011;46665;51.558;-0.448;2023-01-23T09:52:45;9.55;;;3.90;;
60831;SDS011;46665;51.558;-0.448;2023-01-23T09:58:27;5.60;;;3.92;;
60831;SDS011;46665;51.558;-0.448;2023-01-23T10:01:18;8.75;;;5.18;;
60831;SDS011;46665;51.558;-0.448;2023-01-23T10:04:03;6.35;;;3.28;;
60831;SDS011;46665;51.558;-0.448;2023-01-23T10:25:28;4.93;;;2.45;;
60831;SDS011;46665;51.558;-0.448;2023-01-23T10:34:16;12.48;;;3.25;;
60831;SDS011;46665;51.558;-0.448;2023-01-23T10:37:10;5.05;;;3.15;;
60831;SDS011;46665;51.558;-0.448;2023-01-23T10:40:02;9.13;;;3.47;;
60831;SDS011;46665;51.558;-0.448;2023-01-23T10:42:50;6.38;;;5.28;;
60831;SDS011;46665;51.558;-0.448;2023-01-23T10:45:34;4.22;;;2.53;;
60831;SDS011;46665;51.558;-0.448;2023-01-23T10:54:20;5.25;;;3.55;;
60831;SDS011;46665;51.558;-0.448;2023-01-23T11:06:06;6.13;;;3.38;;
60831;SDS011;46665;51.558;-0.448;2023-01-23T11:12:03;4.10;;;2.95;;
60831;SDS011;46665;51.558;-0.448;2023-01-23T11:14:49;4.07;;;2.58;;
60831;SDS011;46665;51.558;-0.448;2023-01-23T11:17:34;5.63;;;4.70;;
60831;SDS011;46665;51.558;-0.448;2023-01-23T11:23:22;5.80;;;4.22;;
60831;SDS011;46665;51.558;-0.448;2023-01-23T11:26:08;8.00;;;4.13;;
60831;SDS011;46665;51.558;-0.448;2023-01-23T11:29:22;8.88;;;3.67;;
60831;SDS011;46665;51.558;-0.448;2023-01-23T11:32:11;5.97;;;3.30;;
60831;SDS011;46665;51.558;-0.448;2023-01-23T11:35:02;2.95;;;2.72;;
60831;SDS011;46665;51.558;-0.448;2023-01-23T11:38:01;2.78;;;2.58;;
60831;SDS011;46665;51.558;-0.448;2023-01-23T11:40:47;6.40;;;4.70;;
60831;SDS011;46665;51.558;-0.448;2023-01-23T11:43:31;4.97;;;3.38;;
60831;SDS011;46665;51.558;-0.448;2023-01-23T11:46:25;4.25;;;3.08;;
60831;SDS011;46665;51.558;-0.448;2023-01-23T11:55:40;3.80;;;2.85;;
60831;SDS011;46665;51.558;-0.448;2023-01-23T12:05:51;8.65;;;2.80;;
60831;SDS011;46665;51.558;-0.448;2023-01-23T12:18:24;5.18;;;2.50;;
60831;SDS011;46665;51.558;-0.448;2023-01-23T12:27:43;4.40;;;2.45;;
60831;SDS011;46665;51.558;-0.448;2023-01-23T12:43:07;2.75;;;1.92;;
60831;SDS011;46665;51.558;-0.448;2023-01-23T12:45:56;3.25;;;2.08;;
60831;SDS011;46665;51.558;-0.448;2023-01-23T12:49:02;8.38;;;2.28;;
60831;SDS011;46665;51.558;-0.448;2023-01-23T12:52:18;1.35;;;1.23;;
60831;SDS011;46665;51.558;-0.448;2023-01-23T12:55:10;5.82;;;1.67;;
60831;SDS011;46665;51.558;-0.448;2023-01-23T12:57:59;0.90;;;0.90;;
60831;SDS011;46665;51.558;-0.448;2023-01-23T13:07:08;4.93;;;1.88;;
60831;SDS011;46665;51.558;-0.448;2023-01-23T13:13:45;1.77;;;1.45;;
60831;SDS011;46665;51.558;-0.448;2023-01-23T13:16:30;4.13;;;1.45;;
60831;SDS011;46665;51.558;-0.448;2023-01-23T13:19:19;5.68;;;1.65;;
60831;SDS011;46665;51.558;-0.448;2023-01-23T13:22:29;1.20;;;1.10;;
60831;SDS011;46665;51.558;-0.448;2023-01-23T13:25:16;4.88;;;1.35;;
60831;SDS011;46665;51.558;-0.448;2023-01-23T13:28:23;1.50;;;1.10;;
60831;SDS011;46665;51.558;-0.448;2023-01-23T13:37:30;2.17;;;1.08;;
60831;SDS011;46665;51.558;-0.448;2023-01-23T13:40:13;0.73;;;0.70;;
60831;SDS011;46665;51.558;-0.448;2023-01-23T13:52:51;1.85;;;1.20;;
60831;SDS011;46665;51.558;-0.448;2023-01-23T13:55:56;1.23;;;1.13;;
60831;SDS011;46665;51.558;-0.448;2023-01-23T13:58:59;2.75;;;1.63;;
60831;SDS011;46665;51.558;-0.448;2023-01-23T14:01:46;1.73;;;1.38;;
60831;SDS011;46665;51.558;-0.448;2023-01-23T14:05:00;1.30;;;1.20;;
60831;SDS011;46665;51.558;-0.448;2023-01-23T14:07:59;3.17;;;1.88;;
60831;SDS011;46665;51.558;-0.448;2023-01-23T14:10:47;1.67;;;1.58;;
60831;SDS011;46665;51.558;-0.448;2023-01-23T14:13:32;2.10;;;1.10;;
60831;SDS011;46665;51.558;-0.448;2023-01-23T14:16:19;1.20;;;1.02;;
60831;SDS011;46665;51.558;-0.448;2023-01-23T14:19:19;1.42;;;1.23;;
60831;SDS011;46665;51.558;-0.448;2023-01-23T14:22:08;3.17;;;1.33;;
60831;SDS011;46665;51.558;-0.448;2023-01-23T14:24:53;4.88;;;1.50;;
60831;SDS011;46665;51.558;-0.448;2023-01-23T14:27:38;2.08;;;1.38;;
60831;SDS011;46665;51.558;-0.448;2023-01-23T14:30:23;2.67;;;1.50;;
60831;SDS011;46665;51.558;-0.448;2023-01-23T14:33:09;3.30;;;1.52;;
60831;SDS011;46665;51.558;-0.448;2023-01-23T14:35:54;1.58;;;1.08;;
60831;SDS011;46665;51.558;-0.448;2023-01-23T14:38:39;2.28;;;1.00;;
60831;SDS011;46665;51.558;-0.448;2023-01-23T14:41:24;1.73;;;1.25;;
60831;SDS011;46665;51.558;-0.448;2023-01-23T14:44:23;2.35;;;1.50;;
60831;SDS011;46665;51.558;-0.448;2023-01-23T14:47:16;1.73;;;1.08;;
60831;SDS011;46665;51.558;-0.448;2023-01-23T14:50:09;2.13;;;1.45;;
60831;SDS011;46665;51.558;-0.448;2023-01-23T14:53:04;11.32;;;1.80;;
60831;SDS011;46665;51.558;-0.448;2023-01-23T14:55:50;1.58;;;1.00;;
60831;SDS011;46665;51.558;-0.448;2023-01-23T14:58:35;3.90;;;1.25;;
60831;SDS011;46665;51.558;-0.448;2023-01-23T15:01:20;2.25;;;1.15;;
60831;SDS011;46665;51.558;-0.448;2023-01-23T15:04:21;2.00;;;1.10;;
60831;SDS011;46665;51.558;-0.448;2023-01-23T15:07:11;2.33;;;1.30;;
60831;SDS011;46665;51.558;-0.448;2023-01-23T15:09:59;1.40;;;1.05;;
60831;SDS011;46665;51.558;-0.448;2023-01-23T15:12:48;1.23;;;1.00;;
60831;SDS011;46665;51.558;-0.448;2023-01-23T15:15:34;0.80;;;0.80;;
60831;SDS011;46665;51.558;-0.448;2023-01-23T15:18:20;2.60;;;1.60;;
60831;SDS011;46665;51.558;-0.448;2023-01-23T15:21:06;9.10;;;1.50;;
60831;SDS011;46665;51.558;-0.448;2023-01-23T15:29:46;2.83;;;1.63;;
60831;SDS011;46665;51.558;-0.448;2023-01-23T15:32:30;3.90;;;0.68;;
60831;SDS011;46665;51.558;-0.448;2023-01-23T15:35:14;1.92;;;1.02;;
60831;SDS011;46665;51.558;-0.448;2023-01-23T15:38:00;1.48;;;1.02;;
60831;SDS011;46665;51.558;-0.448;2023-01-23T15:40:47;2.08;;;1.33;;
60831;SDS011;46665;51.558;-0.448;2023-01-23T15:43:31;1.10;;;0.77;;
60831;SDS011;46665;51.558;-0.448;2023-01-23T15:46:15;1.15;;;0.93;;
60831;SDS011;46665;51.558;-0.448;2023-01-23T15:48:59;0.63;;;0.63;;
60831;SDS011;46665;51.558;-0.448;2023-01-23T15:51:43;2.03;;;1.17;;
60831;SDS011;46665;51.558;-0.448;2023-01-23T15:54:31;1.58;;;0.95;;
60831;SDS011;46665;51.558;-0.448;2023-01-23T15:57:16;4.40;;;1.48;;
60831;SDS011;46665;51.558;-0.448;2023-01-23T16:00:00;1.13;;;1.05;;
60831;SDS011;46665;51.558;-0.448;2023-01-23T16:02:45;2.45;;;0.75;;
60831;SDS011;46665;51.558;-0.448;2023-01-23T16:05:33;1.50;;;1.20;;
60831;SDS011;46665;51.558;-0.448;2023-01-23T16:08:19;0.68;;;0.68;;
60831;SDS011;46665;51.558;-0.448;2023-01-23T16:11:05;1.30;;;0.90;;
60831;SDS011;46665;51.558;-0.448;2023-01-23T16:13:49;2.15;;;1.83;;
60831;SDS011;46665;51.558;-0.448;2023-01-23T16:16:34;1.40;;;1.10;;
60831;SDS011;46665;51.558;-0.448;2023-01-23T16:19:18;4.00;;;1.67;;
60831;SDS011;46665;51.558;-0.448;2023-01-23T16:22:02;1.67;;;1.48;;
60831;SDS011;46665;51.558;-0.448;2023-01-23T16:24:46;1.42;;;1.10;;
60831;SDS011;46665;51.558;-0.448;2023-01-23T16:27:30;1.25;;;1.02;;
60831;SDS011;46665;51.558;-0.448;2023-01-23T16:30:14;1.08;;;1.08;;
60831;SDS011;46665;51.558;-0.448;2023-01-23T16:33:02;2.13;;;1.77;;
60831;SDS011;46665;51.558;-0.448;2023-01-23T16:35:47;2.08;;;1.85;;
60831;SDS011;46665;51.558;-0.448;2023-01-23T16:38:32;0.82;;;0.82;;
60831;SDS011;46665;51.558;-0.448;2023-01-23T16:41:16;1.95;;;1.33;;
60831;SDS011;46665;51.558;-0.448;2023-01-23T16:44:00;1.20;;;1.10;;
60831;SDS011;46665;51.558;-0.448;2023-01-23T16:46:45;3.10;;;1.65;;
60831;SDS011;46665;51.558;-0.448;2023-01-23T16:49:29;1.25;;;1.05;;
60831;SDS011;46665;51.558;-0.448;2023-01-23T16:52:13;4.20;;;1.58;;
60831;SDS011;46665;51.558;-0.448;2023-01-23T16:54:57;5.22;;;1.27;;
60831;SDS011;46665;51.558;-0.448;2023-01-23T16:57:41;9.00;;;1.23;;
60831;SDS011;46665;51.558;-0.448;2023-01-23T17:00:25;1.10;;;1.05;;
60831;SDS011;46665;51.558;-0.448;2023-01-23T17:03:12;2.95;;;0.98;;
60831;SDS011;46665;51.558;-0.448;2023-01-23T17:06:04;3.65;;;1.45;;
60831;SDS011;46665;51.558;-0.448;2023-01-23T17:08:48;3.20;;;1.55;;
60831;SDS011;46665;51.558;-0.448;2023-01-23T17:11:35;1.83;;;1.20;;
60831;SDS011;46665;51.558;-0.448;2023-01-23T17:14:27;1.17;;;1.08;;
60831;SDS011;46665;51.558;-0.448;2023-01-23T17:17:14;5.88;;;1.33;;
60831;SDS011;46665;51.558;-0.448;2023-01-23T17:20:11;1.20;;;1.20;;
60831;SDS011;46665;51.558;-0.448;2023-01-23T17:22:56;2.08;;;1.70;;
60831;SDS011;46665;51.558;-0.448;2023-01-23T17:25:40;2.30;;;1.48;;
60831;SDS011;46665;51.558;-0.448;2023-01-23T17:28:30;1.65;;;1.17;;
60831;SDS011;46665;51.558;-0.448;2023-01-23T17:31:15;3.38;;;1.60;;
60831;SDS011;46665;51.558;-0.448;2023-01-23T17:34:04;3.47;;;1.80;;
60831;SDS011;46665;51.558;-0.448;2023-01-23T17:36:50;1.10;;;1.00;;
60831;SDS011;46665;51.558;-0.448;2023-01-23T17:39:37;1.98;;;1.63;;
60831;SDS011;46665;51.558;-0.448;2023-01-23T17:42:21;1.67;;;1.38;;
60831;SDS011;46665;51.558;-0.448;2023-01-23T17:45:05;5.78;;;2.47;;
60831;SDS011;46665;51.558;-0.448;2023-01-23T17:47:52;4.43;;;1.70;;
60831;SDS011;46665;51.558;-0.448;2023-01-23T17:50:37;1.50;;;1.38;;
60831;SDS011;46665;51.558;-0.448;2023-01-23T17:53:21;1.90;;;1.80;;
60831;SDS011;46665;51.558;-0.448;2023-01-23T17:56:06;5.07;;;2.15;;
60831;SDS011;46665;51.558;-0.448;2023-01-23T17:58:50;2.28;;;1.63;;
60831;SDS011;46665;51.558;-0.448;2023-01-23T18:01:34;2.30;;;1.60;;
60831;SDS011;46665;51.558;-0.448;2023-01-23T18:04:18;4.07;;;2.00;;
60831;SDS011;46665;51.558;-0.448;2023-01-23T18:07:07;2.30;;;1.75;;
60831;SDS011;46665;51.558;-0.448;2023-01-23T18:09:52;2.03;;;1.52;;
60831;SDS011;46665;51.558;-0.448;2023-01-23T18:21:14;8.23;;;1.92;;
60831;SDS011;46665;51.558;-0.448;2023-01-23T18:24:00;5.38;;;2.88;;
60831;SDS011;46665;51.558;-0.448;2023-01-23T18:26:52;4.80;;;3.05;;
60831;SDS011;46665;51.558;-0.448;2023-01-23T18:35:35;3.15;;;1.90;;
60831;SDS011;46665;51.558;-0.448;2023-01-23T18:38:40;3.08;;;2.55;;
60831;SDS011;46665;51.558;-0.448;2023-01-23T18:41:37;4.57;;;2.45;;
60831;SDS011;46665;51.558;-0.448;2023-01-23T18:44:36;5.05;;;2.33;;
60831;SDS011;46665;51.558;-0.448;2023-01-23T18:47:25;2.42;;;1.88;;
60831;SDS011;46665;51.558;-0.448;2023-01-23T18:50:16;8.35;;;2.55;;
60831;SDS011;46665;51.558;-0.448;2023-01-23T18:53:15;3.13;;;2.40;;
60831;SDS011;46665;51.558;-0.448;2023-01-23T18:56:43;2.70;;;2.17;;
60831;SDS011;46665;51.558;-0.448;2023-01-23T18:59:25;3.00;;;2.28;;